Time;durP1;ratioP1;P1;durP2;ratioP2;P2;SDS_P1;SDS_P2;PMS_P1;PMS_P2;Temp;Humidity;BMP_temperature;BMP_pressure;BME280_temperature;BME280_humidity;BME280_pressure;Samples;Min_cycle;Max_cycle;Signal;HPM_P1;HPM_P2
2021/09/17 00:00:28;;;;;;;16.00;8.50;;;;;;;-149.78;100.00;50232.84;4838758;29;20089;-60
2021/09/17 00:02:55;;;;;;;17.40;9.18;;;;;;;-149.78;100.00;50226.97;4857704;29;20036;-60
2021/09/17 00:05:21;;;;;;;21.25;8.82;;;;;;;-149.78;100.00;50248.50;4860089;29;20040;-60
2021/09/17 00:07:47;;;;;;;16.00;8.95;;;;;;;-149.78;100.00;50228.94;4859805;29;20041;-60
2021/09/17 00:10:13;;;;;;;14.18;7.97;;;;;;;-149.78;100.00;50248.50;4858015;29;20116;-60
2021/09/17 00:12:42;;;;;;;16.48;8.55;;;;;;;-149.78;100.00;50205.47;4860825;29;20041;-60
2021/09/17 00:15:10;;;;;;;15.82;8.10;;;;;;;-149.78;100.00;50228.94;4826567;29;20041;-60
2021/09/17 00:17:37;;;;;;;20.05;8.13;;;;;;;-149.78;100.00;50236.75;4859865;29;20048;-60
2021/09/17 00:20:04;;;;;;;16.17;8.40;;;;;;;-149.78;100.00;50221.13;4858608;29;20041;-60
2021/09/17 00:22:30;;;;;;;15.82;7.95;;;;;;;-149.78;100.00;50242.63;4859313;29;20034;-60
2021/09/17 00:24:56;;;;;;;14.38;7.63;;;;;;;-149.78;100.00;50225.03;4844463;29;20435;-60
2021/09/17 00:27:22;;;;;;;15.73;8.27;;;;;;;-149.78;100.00;50236.75;4859091;29;20370;-60
2021/09/17 00:29:48;;;;;;;14.95;7.65;;;;;;;-149.78;100.00;50230.88;4859902;29;20047;-60
2021/09/17 00:32:14;;;;;;;17.80;7.65;;;;;;;-149.78;100.00;50230.88;4859328;29;20033;-60
2021/09/17 00:34:40;;;;;;;14.63;7.40;;;;;;;-149.78;100.00;50225.03;4859667;29;20045;-61
2021/09/17 00:37:06;;;;;;;15.77;7.65;;;;;;;-149.78;100.00;50232.84;4838558;29;20048;-60
2021/09/17 00:39:31;;;;;;;14.13;7.40;;;;;;;-149.78;100.00;50246.53;4858029;29;20504;-60
2021/09/17 00:41:58;;;;;;;14.35;7.60;;;;;;;-149.78;100.00;50221.13;4859135;29;20485;-60
2021/09/17 00:44:25;;;;;;;14.93;8.02;;;;;;;-149.78;100.00;50260.22;4860077;29;20041;-60
2021/09/17 00:46:52;;;;;;;12.73;7.05;;;;;;;-149.78;100.00;50283.69;4864002;29;20040;-60
2021/09/17 00:49:20;;;;;;;13.05;7.65;;;;;;;-149.78;100.00;50213.28;4857735;29;20037;-60
2021/09/17 00:51:46;;;;;;;15.38;7.50;;;;;;;-149.78;100.00;50213.28;4863720;29;20528;-60
2021/09/17 00:54:12;;;;;;;15.98;8.38;;;;;;;-149.78;100.00;50230.88;4863442;29;20082;-60
2021/09/17 00:56:38;;;;;;;18.52;8.13;;;;;;;-149.78;100.00;50252.41;4858327;29;20588;-60
2021/09/17 00:59:04;;;;;;;16.85;8.48;;;;;;;-149.78;100.00;50256.31;4859158;29;20124;-63
2021/09/17 01:01:30;;;;;;;15.43;7.55;;;;;;;-149.78;100.00;50232.84;4854609;29;20081;-64
2021/09/17 01:03:55;;;;;;;17.23;8.48;;;;;;;-149.78;100.00;50219.16;4863067;29;20049;-64
2021/09/17 01:06:21;;;;;;;19.58;8.68;;;;;;;-149.78;100.00;50232.84;4853839;29;20041;-63
2021/09/17 01:08:47;;;;;;;16.70;8.95;;;;;;;-149.78;100.00;50260.22;4861080;29;20038;-64
2021/09/17 01:11:13;;;;;;;20.38;9.05;;;;;;;-149.78;100.00;50228.94;4861494;29;20049;-64
2021/09/17 01:13:39;;;;;;;22.65;9.38;;;;;;;-149.78;100.00;50240.66;4859129;29;20181;-64
2021/09/17 01:16:06;;;;;;;20.00;10.27;;;;;;;-149.78;100.00;50256.31;4861620;29;20045;-63
2021/09/17 01:18:31;;;;;;;20.63;10.15;;;;;;;-149.78;100.00;50252.41;4861911;29;20084;-63
2021/09/17 01:21:02;;;;;;;18.88;10.18;;;;;;;-149.78;100.00;50260.22;4863484;29;20038;-63
2021/09/17 01:23:28;;;;;;;23.92;10.18;;;;;;;-149.78;100.00;50264.13;4862505;29;20037;-63
2021/09/17 01:25:53;;;;;;;22.98;11.80;;;;;;;-149.78;100.00;50225.03;4861578;29;20042;-64
2021/09/17 01:28:25;;;;;;;26.40;12.13;;;;;;;-149.78;100.00;50189.81;4862054;29;20363;-64
2021/09/17 01:30:51;;;;;;;25.65;13.10;;;;;;;-149.78;100.00;50232.84;4857958;29;20037;-63
2021/09/17 01:33:17;;;;;;;26.58;12.05;;;;;;;-149.78;100.00;50279.78;4857542;29;20489;-63
2021/09/17 01:35:43;;;;;;;25.42;13.68;;;;;;;-149.78;100.00;50240.66;4853962;29;20046;-63
2021/09/17 01:38:09;;;;;;;25.52;13.02;;;;;;;-149.78;100.00;50213.28;4858042;29;20045;-63
2021/09/17 01:40:35;;;;;;;31.48;14.73;;;;;;;-149.78;100.00;50228.94;4851265;29;20041;-63
2021/09/17 01:43:02;;;;;;;33.10;14.45;;;;;;;-149.78;100.00;50223.06;4862778;29;20042;-63
2021/09/17 01:45:29;;;;;;;38.97;15.65;;;;;;;-149.78;100.00;50236.75;4862921;29;20037;-63
2021/09/17 01:47:55;;;;;;;33.70;16.23;;;;;;;-149.78;100.00;50252.41;4853898;29;20085;-63
2021/09/17 01:50:21;;;;;;;34.60;15.30;;;;;;;-149.78;100.00;50256.31;4853157;29;20072;-63
2021/09/17 01:52:46;;;;;;;35.03;15.35;;;;;;;-149.78;100.00;50228.94;4859509;29;20053;-63
2021/09/17 01:55:12;;;;;;;39.13;16.92;;;;;;;-149.78;100.00;50213.28;4859250;29;20094;-63
2021/09/17 01:57:38;;;;;;;38.58;16.25;;;;;;;-149.78;100.00;50244.59;4861341;29;20123;-63
2021/09/17 02:00:06;;;;;;;35.92;16.60;;;;;;;-149.78;100.00;50256.31;4846019;29;20049;-63
2021/09/17 02:02:33;;;;;;;44.97;17.88;;;;;;;-149.78;100.00;50236.75;4843942;29;20094;-63
2021/09/17 02:04:59;;;;;;;39.28;17.85;;;;;;;-149.78;100.00;50268.03;4830382;29;20049;-63
2021/09/17 02:07:25;;;;;;;41.30;18.08;;;;;;;-149.78;100.00;50213.28;4855731;29;20050;-63
2021/09/17 02:09:50;;;;;;;37.60;17.10;;;;;;;-149.78;100.00;50256.31;4844776;29;20088;-63
2021/09/17 02:12:16;;;;;;;39.13;17.77;;;;;;;-149.78;100.00;50256.31;4855973;29;20087;-63
2021/09/17 02:14:42;;;;;;;37.20;16.52;;;;;;;-149.78;100.00;50260.22;4860679;29;20037;-63
2021/09/17 02:17:08;;;;;;;34.60;16.75;;;;;;;-149.78;100.00;50228.94;4862698;29;20136;-63
2021/09/17 02:19:34;;;;;;;37.80;16.98;;;;;;;-149.78;100.00;50264.13;4859926;29;20045;-63
2021/09/17 02:22:00;;;;;;;36.72;16.77;;;;;;;-149.78;100.00;50236.75;4856663;29;20042;-63
2021/09/17 02:24:28;;;;;;;36.70;17.48;;;;;;;-149.78;100.00;50258.28;4863530;29;20045;-63
2021/09/17 02:26:54;;;;;;;38.72;18.08;;;;;;;-149.78;100.00;50258.28;4845465;29;20489;-63
2021/09/17 02:29:20;;;;;;;36.40;16.48;;;;;;;-149.78;100.00;50268.03;4860696;29;20430;-63
2021/09/17 02:31:46;;;;;;;29.05;12.98;;;;;;;-149.78;100.00;50232.84;4860197;29;20045;-63
2021/09/17 02:34:12;;;;;;;32.70;15.40;;;;;;;-149.78;100.00;50248.50;4861983;29;20097;-63
2021/09/17 02:36:38;;;;;;;30.50;15.15;;;;;;;-149.78;100.00;50264.13;4860149;29;20042;-63
2021/09/17 02:39:04;;;;;;;35.03;15.55;;;;;;;-149.78;100.00;50248.50;4860843;29;20482;-63
2021/09/17 02:41:29;;;;;;;27.13;13.55;;;;;;;-149.78;100.00;50246.53;4861293;29;20068;-63
2021/09/17 02:43:55;;;;;;;31.65;13.48;;;;;;;-149.78;100.00;50242.63;4860533;29;20105;-63
2021/09/17 02:46:21;;;;;;;26.67;12.25;;;;;;;-149.78;100.00;50266.09;4861221;29;20033;-63
2021/09/17 02:48:47;;;;;;;27.98;13.55;;;;;;;-149.78;100.00;50230.88;4860011;29;20505;-63
2021/09/17 02:51:13;;;;;;;35.83;16.25;;;;;;;-149.78;100.00;50264.13;4862017;29;20382;-63
2021/09/17 02:53:38;;;;;;;35.92;16.92;;;;;;;-149.78;100.00;50244.59;4858723;29;20525;-63
2021/09/17 02:56:04;;;;;;;38.90;17.92;;;;;;;-149.78;100.00;50275.88;4857456;29;20052;-63
2021/09/17 02:58:30;;;;;;;42.03;18.13;;;;;;;-149.78;100.00;50275.88;4844005;29;20033;-63
2021/09/17 03:00:56;;;;;;;37.58;17.00;;;;;;;-149.78;100.00;50256.31;4855517;29;20367;-63
2021/09/17 03:03:21;;;;;;;40.75;17.60;;;;;;;-149.78;100.00;50234.81;4855482;29;20108;-63
2021/09/17 03:05:47;;;;;;;35.63;17.52;;;;;;;-149.78;100.00;50273.91;4841478;29;20585;-63
2021/09/17 03:08:13;;;;;;;35.00;16.75;;;;;;;-149.78;100.00;50225.03;4856668;29;20479;-63
2021/09/17 03:10:39;;;;;;;36.33;17.25;;;;;;;-149.78;100.00;50271.97;4860944;29;20037;-63
2021/09/17 03:13:04;;;;;;;40.88;16.73;;;;;;;-149.78;100.00;50252.41;4860654;29;20037;-63
2021/09/17 03:15:30;;;;;;;31.45;15.40;;;;;;;-149.78;100.00;50260.22;4861290;29;20037;-63
2021/09/17 03:17:56;;;;;;;30.40;15.25;;;;;;;-149.78;100.00;50240.66;4860805;29;20120;-63
2021/09/17 03:20:21;;;;;;;33.42;15.45;;;;;;;-149.78;100.00;50244.59;4843542;29;20518;-63
2021/09/17 03:22:48;;;;;;;33.45;16.05;;;;;;;-149.78;100.00;50240.66;4860395;29;20037;-63
2021/09/17 03:25:13;;;;;;;34.55;15.98;;;;;;;-149.78;100.00;50279.78;4859881;29;20108;-63
2021/09/17 03:27:39;;;;;;;34.67;16.55;;;;;;;-149.78;100.00;50313.03;4856295;29;20046;-63
2021/09/17 03:30:06;;;;;;;31.67;15.52;;;;;;;-149.78;100.00;50260.22;4855952;29;20403;-63
2021/09/17 03:32:32;;;;;;;34.45;15.98;;;;;;;-149.78;100.00;50281.75;4860721;29;20048;-63
2021/09/17 03:34:58;;;;;;;34.85;15.40;;;;;;;-149.78;100.00;50314.97;4860007;29;20560;-63
2021/09/17 03:37:24;;;;;;;33.53;15.27;;;;;;;-149.78;100.00;50271.97;4857296;29;20386;-63
2021/09/17 03:39:49;;;;;;;32.70;15.20;;;;;;;-149.78;100.00;50291.50;4860470;29;20124;-63
2021/09/17 03:42:15;;;;;;;29.95;15.20;;;;;;;-149.78;100.00;50262.19;4853159;29;20068;-63
2021/09/17 03:44:41;;;;;;;31.25;15.82;;;;;;;-149.78;100.00;50279.78;4839599;29;20057;-63
2021/09/17 03:47:07;;;;;;;29.38;13.57;;;;;;;-149.78;100.00;50287.59;4826125;29;20054;-63
2021/09/17 03:49:33;;;;;;;36.58;16.48;;;;;;;-149.78;100.00;50271.97;4861173;29;20470;-63
2021/09/17 03:51:59;;;;;;;36.88;17.35;;;;;;;-149.78;100.00;50291.50;4858932;29;20030;-63
2021/09/17 03:54:27;;;;;;;38.33;18.45;;;;;;;-149.78;100.00;50260.22;4857485;29;20049;-63
2021/09/17 03:56:57;;;;;;;38.70;17.67;;;;;;;-149.78;100.00;50283.69;4858976;29;20366;-63
2021/09/17 03:59:23;;;;;;;35.90;18.27;;;;;;;-149.78;100.00;50252.41;4859920;29;20052;-62
2021/09/17 04:01:49;;;;;;;40.25;18.00;;;;;;;-149.78;100.00;50268.03;4857932;29;20044;-63
2021/09/17 04:04:15;;;;;;;36.05;17.15;;;;;;;-149.78;100.00;50256.31;4866200;29;20496;-63
2021/09/17 04:06:44;;;;;;;37.63;16.65;;;;;;;-149.78;100.00;50264.13;4855746;29;20049;-63
2021/09/17 04:09:10;;;;;;;35.55;18.65;;;;;;;-149.78;100.00;50250.44;4855556;29;20033;-62
2021/09/17 04:11:36;;;;;;;37.47;18.20;;;;;;;-149.78;100.00;50252.41;4858772;29;20056;-62
2021/09/17 04:14:02;;;;;;;40.28;18.38;;;;;;;-149.78;100.00;50268.03;4859249;29;20033;-62
2021/09/17 04:16:28;;;;;;;43.13;17.77;;;;;;;-149.78;100.00;50279.78;4856984;29;20398;-63
2021/09/17 04:18:54;;;;;;;34.35;16.27;;;;;;;-149.78;100.00;50281.75;4859318;29;20052;-62
2021/09/17 04:21:20;;;;;;;33.78;15.77;;;;;;;-149.78;100.00;50240.66;4859765;29;20045;-63
2021/09/17 04:23:45;;;;;;;32.10;15.50;;;;;;;-149.78;100.00;50279.78;4860337;29;20037;-62
2021/09/17 04:26:11;;;;;;;29.88;14.98;;;;;;;-149.78;100.00;50291.50;4857091;29;20070;-63
2021/09/17 04:28:37;;;;;;;32.72;15.75;;;;;;;-149.78;100.00;50287.59;4860522;29;20046;-62
2021/09/17 04:31:02;;;;;;;36.92;15.35;;;;;;;-149.78;100.00;50256.31;4856269;29;20048;-63
2021/09/17 04:33:28;;;;;;;33.60;14.27;;;;;;;-149.78;100.00;50256.31;4860535;29;20041;-63
2021/09/17 04:35:54;;;;;;;29.52;13.20;;;;;;;-149.78;100.00;50268.03;4858700;29;20542;-63
2021/09/17 04:38:20;;;;;;;26.38;13.52;;;;;;;-149.78;100.00;50266.09;4858259;29;20089;-63
2021/09/17 04:40:45;;;;;;;30.25;13.55;;;;;;;-149.78;100.00;50256.31;4860239;29;20048;-63
2021/09/17 04:43:11;;;;;;;25.52;11.80;;;;;;;-149.78;100.00;50289.56;4859812;29;20041;-63
2021/09/17 04:45:37;;;;;;;26.83;12.57;;;;;;;-149.78;100.00;50299.34;4857752;29;20128;-63
2021/09/17 04:48:14;;;;;;;33.70;13.52;;;;;;;-149.78;100.00;50295.44;4838687;29;20053;-63
2021/09/17 04:50:41;;;;;;;31.30;12.73;;;;;;;-149.78;100.00;50283.69;4854561;29;20037;-63
2021/09/17 04:53:07;;;;;;;27.58;12.88;;;;;;;-149.78;100.00;50252.41;4859050;29;20029;-63
2021/09/17 04:55:33;;;;;;;25.77;12.85;;;;;;;-149.78;100.00;50275.88;4854374;29;20033;-63
2021/09/17 04:58:07;;;;;;;27.95;12.93;;;;;;;-149.78;100.00;50279.78;4852193;29;20065;-63
2021/09/17 05:00:37;;;;;;;29.52;12.65;;;;;;;-149.78;100.00;50283.69;4860069;29;20037;-63
2021/09/17 05:03:03;;;;;;;33.45;14.32;;;;;;;-149.78;100.00;50221.13;4859052;29;20449;-62
2021/09/17 05:05:29;;;;;;;25.88;12.43;;;;;;;-149.78;100.00;50260.22;4856328;29;20057;-62
2021/09/17 05:07:54;;;;;;;32.15;13.35;;;;;;;-149.78;100.00;50271.97;4853628;29;20087;-64
2021/09/17 05:10:21;;;;;;;29.20;13.15;;;;;;;-149.78;100.00;50303.25;4848538;29;20034;-63
2021/09/17 05:12:47;;;;;;;28.20;12.43;;;;;;;-149.78;100.00;50289.56;4857976;29;20033;-63
2021/09/17 05:15:13;;;;;;;27.55;12.13;;;;;;;-149.78;100.00;50262.19;4853193;29;20408;-63
2021/09/17 05:17:38;;;;;;;26.65;12.88;;;;;;;-149.78;100.00;50275.88;4858292;29;20045;-63
2021/09/17 05:20:05;;;;;;;27.92;13.15;;;;;;;-149.78;100.00;50313.03;4853065;29;20117;-63
2021/09/17 05:22:31;;;;;;;26.83;12.32;;;;;;;-149.78;100.00;50322.81;4852821;29;20056;-63
2021/09/17 05:24:57;;;;;;;29.02;13.43;;;;;;;-149.78;100.00;50303.25;4859312;29;20484;-63
2021/09/17 05:27:25;;;;;;;30.67;12.80;;;;;;;-149.78;100.00;50283.69;4840998;29;20085;-63
2021/09/17 05:29:52;;;;;;;30.17;13.27;;;;;;;-149.78;100.00;50260.22;4859810;29;20117;-63
2021/09/17 05:32:20;;;;;;;28.90;13.27;;;;;;;-149.78;100.00;50285.66;4858696;29;20459;-63
2021/09/17 05:34:46;;;;;;;28.27;12.88;;;;;;;-149.78;100.00;50299.34;4862200;29;20041;-63
2021/09/17 05:37:12;;;;;;;27.40;13.77;;;;;;;-149.78;100.00;50283.69;4860563;29;20037;-63
2021/09/17 05:39:38;;;;;;;24.77;12.40;;;;;;;-149.78;100.00;50256.31;4857174;29;20044;-63
2021/09/17 05:42:04;;;;;;;28.98;13.27;;;;;;;-149.78;100.00;50242.63;4844425;29;20438;-63
2021/09/17 05:44:30;;;;;;;24.98;13.23;;;;;;;-149.78;100.00;50299.34;4854239;29;20128;-63
2021/09/17 05:46:56;;;;;;;25.77;13.55;;;;;;;-149.78;100.00;50260.22;4858510;29;20132;-63
2021/09/17 05:49:21;;;;;;;32.63;13.50;;;;;;;-149.78;100.00;50295.44;4859048;29;20041;-63
2021/09/17 05:51:47;;;;;;;29.17;13.13;;;;;;;-149.78;100.00;50236.75;4860975;29;20026;-63
2021/09/17 05:54:13;;;;;;;29.45;12.93;;;;;;;-149.78;100.00;50283.69;4855200;29;20044;-63
2021/09/17 05:56:39;;;;;;;27.02;12.38;;;;;;;-149.78;100.00;50299.34;4855766;29;20041;-63
2021/09/17 05:59:05;;;;;;;25.40;12.23;;;;;;;-149.78;100.00;50307.16;4859285;29;20045;-63
2021/09/17 06:01:30;;;;;;;28.20;13.18;;;;;;;-149.78;100.00;50301.28;4852685;29;20120;-63
2021/09/17 06:03:56;;;;;;;24.13;12.13;;;;;;;-149.78;100.00;50285.66;4850483;29;20683;-63
2021/09/17 06:06:21;;;;;;;27.50;12.82;;;;;;;-149.78;100.00;50275.88;4859039;29;20098;-63
2021/09/17 06:08:48;;;;;;;27.92;12.20;;;;;;;-149.78;100.00;50287.59;4857037;29;20059;-64
2021/09/17 06:11:15;;;;;;;27.55;12.48;;;;;;;-149.78;100.00;50275.88;4838986;29;20461;-64
2021/09/17 06:13:40;;;;;;;29.50;12.68;;;;;;;-149.78;100.00;50283.69;4858938;29;20105;-64
2021/09/17 06:16:06;;;;;;;26.10;12.30;;;;;;;-149.78;100.00;50297.38;4850187;29;20078;-64
2021/09/17 06:18:32;;;;;;;29.27;12.85;;;;;;;-149.78;100.00;50295.44;4856947;29;20049;-65
2021/09/17 06:20:58;;;;;;;24.30;12.27;;;;;;;-149.78;100.00;50275.88;4855272;29;20050;-64
2021/09/17 06:23:25;;;;;;;28.80;12.43;;;;;;;-149.78;100.00;50279.78;4848432;29;20037;-64
2021/09/17 06:25:50;;;;;;;28.75;12.43;;;;;;;-149.78;100.00;50291.50;4852624;29;20052;-63
2021/09/17 06:28:16;;;;;;;26.92;12.02;;;;;;;-149.78;100.00;50311.06;4855644;29;20476;-62
2021/09/17 06:30:42;;;;;;;24.83;11.07;;;;;;;-149.78;100.00;50295.44;4851349;29;20062;-62
2021/09/17 06:33:07;;;;;;;25.08;10.52;;;;;;;-149.78;100.00;50264.13;4849159;29;20070;-62
2021/09/17 06:35:34;;;;;;;22.30;10.73;;;;;;;-149.78;100.00;50283.69;4857530;29;20121;-64
2021/09/17 06:38:00;;;;;;;20.67;10.65;;;;;;;-149.78;100.00;50291.50;4840735;29;20117;-64
2021/09/17 06:40:27;;;;;;;19.05;9.63;;;;;;;-149.78;100.00;50287.59;4853995;29;20494;-65
2021/09/17 06:42:54;;;;;;;17.73;9.70;;;;;;;-149.78;100.00;50279.78;4851535;29;20042;-65
2021/09/17 06:45:20;;;;;;;17.50;8.60;;;;;;;-149.78;100.00;50226.97;4834089;29;20410;-64
2021/09/17 06:47:47;;;;;;;15.05;8.20;;;;;;;-149.78;100.00;50236.75;4854591;29;20052;-64
2021/09/17 06:50:14;;;;;;;14.27;7.03;;;;;;;-149.78;100.00;50244.59;4859484;29;20044;-64
2021/09/17 06:52:47;;;;;;;11.55;6.75;;;;;;;-149.78;100.00;50221.13;4849898;29;20034;-64
2021/09/17 06:55:20;;;;;;;10.70;6.00;;;;;;;-149.78;100.00;50207.44;4858984;29;20046;-65
2021/09/17 06:57:52;;;;;;;10.13;6.47;;;;;;;-149.78;100.00;50201.56;4851849;29;20764;-63
2021/09/17 07:00:20;;;;;;;9.82;5.53;;;;;;;-149.78;100.00;50205.47;4850946;29;20133;-63
2021/09/17 07:02:46;;;;;;;9.80;5.22;;;;;;;-149.78;100.00;50232.84;4850147;29;20066;-62
2021/09/17 07:05:12;;;;;;;9.68;5.22;;;;;;;-149.78;100.00;50178.09;4847418;29;20034;-63
2021/09/17 07:07:38;;;;;;;10.02;5.05;;;;;;;-149.78;100.00;50205.47;4853842;29;20509;-63
2021/09/17 07:10:06;;;;;;;10.23;5.20;;;;;;;-149.78;100.00;50217.19;4834174;29;20033;-62
2021/09/17 07:12:32;;;;;;;9.00;4.68;;;;;;;-149.78;100.00;50256.31;4827626;29;20170;-62
2021/09/17 07:14:58;;;;;;;8.18;4.68;;;;;;;-149.78;100.00;50215.25;4847526;29;20125;-62
2021/09/17 07:17:23;;;;;;;8.95;5.00;;;;;;;-149.78;100.00;50226.97;4849021;29;20037;-62
2021/09/17 07:19:49;;;;;;;10.30;5.53;;;;;;;-149.78;100.00;50236.75;4855018;29;20382;-63
2021/09/17 07:22:14;;;;;;;11.93;5.97;;;;;;;-149.78;100.00;50205.47;4854118;29;20477;-63
2021/09/17 07:24:40;;;;;;;10.80;6.15;;;;;;;-149.78;100.00;50205.47;4859645;29;20037;-63
2021/09/17 07:27:06;;;;;;;11.63;6.28;;;;;;;-149.78;100.00;50156.56;4858637;29;20473;-63
2021/09/17 07:29:31;;;;;;;10.65;5.63;;;;;;;-149.78;100.00;50174.19;4857708;29;20482;-62
2021/09/17 07:31:58;;;;;;;8.80;5.28;;;;;;;-149.78;100.00;50172.22;4855441;29;20034;-62
2021/09/17 07:34:24;;;;;;;8.15;5.20;;;;;;;-149.78;100.00;50154.63;4805793;29;20029;-63
2021/09/17 07:36:49;;;;;;;9.68;5.03;;;;;;;-149.78;100.00;50168.31;4838546;29;20401;-63
2021/09/17 07:39:15;;;;;;;8.18;4.43;;;;;;;-149.78;100.00;50158.53;4859154;29;20489;-63
2021/09/17 07:41:41;;;;;;;10.20;5.38;;;;;;;-149.78;100.00;50125.28;4857295;29;20053;-63
2021/09/17 07:44:06;;;;;;;7.55;4.82;;;;;;;-149.78;100.00;50144.84;4861022;29;20037;-62
2021/09/17 07:46:32;;;;;;;8.63;5.03;;;;;;;-149.78;100.00;50142.88;4855918;29;20044;-62
2021/09/17 07:48:59;;;;;;;8.95;5.28;;;;;;;-149.78;100.00;50117.47;4858788;29;20416;-63
2021/09/17 07:51:25;;;;;;;7.70;4.68;;;;;;;-149.78;100.00;50095.94;4858366;29;20033;-63
2021/09/17 07:53:50;;;;;;;8.27;5.07;;;;;;;-149.78;100.00;50127.25;4858498;29;20044;-63
2021/09/17 07:56:16;;;;;;;9.48;5.15;;;;;;;-149.78;100.00;50121.38;4858444;29;20033;-63
2021/09/17 07:58:42;;;;;;;7.53;4.55;;;;;;;-149.78;100.00;50123.34;4858480;29;20037;-63
2021/09/17 08:01:08;;;;;;;9.10;4.72;;;;;;;-149.78;100.00;50150.72;4859013;29;20105;-63
2021/09/17 08:03:34;;;;;;;9.48;4.28;;;;;;;-149.78;100.00;50154.63;4858709;29;20049;-63
2021/09/17 08:05:59;;;;;;;6.45;4.32;;;;;;;-149.78;100.00;50146.81;4848521;29;20034;-63
2021/09/17 08:08:26;;;;;;;9.23;4.28;;;;;;;-149.78;100.00;50142.88;4839781;29;20490;-63
2021/09/17 08:10:52;;;;;;;7.45;4.15;;;;;;;-149.78;100.00;50135.06;4852258;29;20125;-63
2021/09/17 08:13:18;;;;;;;9.02;4.13;;;;;;;-149.78;100.00;50119.41;4858498;29;20461;-63
2021/09/17 08:15:43;;;;;;;9.35;4.60;;;;;;;-149.78;100.00;50072.50;4853440;29;20041;-64
2021/09/17 08:18:09;;;;;;;7.43;4.85;;;;;;;-149.78;100.00;50090.09;4857786;29;20049;-63
2021/09/17 08:20:37;;;;;;;8.75;4.53;;;;;;;-149.78;100.00;50115.50;4847894;29;20097;-63
2021/09/17 08:23:03;;;;;;;8.20;4.38;;;;;;;-149.78;85.91;50045.09;4841808;29;20044;-63
2021/09/17 08:25:28;;;;;;;7.07;4.18;;;;;;;-149.78;76.99;50039.25;4854490;29;20042;-63
2021/09/17 08:27:54;;;;;;;7.13;4.55;;;;;;;-149.78;71.97;50033.38;4858937;29;20125;-63
2021/09/17 08:30:20;;;;;;;9.38;4.65;;;;;;;-149.78;74.25;50086.19;4842055;29;20038;-63
2021/09/17 08:32:45;;;;;;;8.57;4.32;;;;;;;-149.78;73.04;50088.13;4858822;29;20069;-62
2021/09/17 08:35:13;;;;;;;7.95;4.65;;;;;;;-149.78;72.76;50037.28;4859657;29;20465;-63
2021/09/17 08:37:39;;;;;;;7.22;4.35;;;;;;;-149.78;69.33;50041.19;4857699;29;20092;-63
2021/09/17 08:40:07;;;;;;;6.72;4.43;;;;;;;-149.78;65.69;50025.56;4858152;29;20085;-63
2021/09/17 08:42:33;;;;;;;9.63;5.00;;;;;;;-149.78;60.92;50025.56;4860162;29;20037;-63
2021/09/17 08:45:00;;;;;;;7.93;5.03;;;;;;;-149.78;60.95;49974.72;4826641;29;20494;-63
2021/09/17 08:47:26;;;;;;;9.07;4.60;;;;;;;-149.78;64.13;50037.28;4859818;29;20065;-63
2021/09/17 08:49:52;;;;;;;6.50;5.00;;;;;;;-149.78;69.37;50107.69;4859568;29;20041;-64
2021/09/17 08:52:17;;;;;;;7.05;5.15;;;;;;;-149.78;76.87;50109.66;4849507;29;20533;-64
2021/09/17 08:54:43;;;;;;;8.13;5.20;;;;;;;-149.78;85.94;50140.94;4855502;29;20080;-64
2021/09/17 08:57:09;;;;;;;7.35;5.55;;;;;;;-149.78;97.91;50189.81;4843544;29;20124;-63
2021/09/17 08:59:35;;;;;;;8.30;5.18;;;;;;;-149.78;100.00;50115.50;4859005;29;20120;-63
2021/09/17 09:02:22;;;;;;;7.85;5.20;;;;;;;-149.78;100.00;50119.41;4842382;29;20041;-63
2021/09/17 09:05:02;;;;;;;9.45;4.93;;;;;;;-149.78;100.00;50154.63;4857712;29;20078;-63
2021/09/17 09:07:34;;;;;;;8.27;5.00;;;;;;;-149.78;100.00;50142.88;4862597;29;20049;-63
2021/09/17 09:10:19;;;;;;;9.00;4.85;;;;;;;-149.78;100.00;50185.91;4861956;29;20389;-63
2021/09/17 09:12:47;;;;;;;7.95;5.05;;;;;;;-149.78;100.00;50197.66;4863255;29;20457;-63
2021/09/17 09:15:17;;;;;;;9.88;5.13;;;;;;;-149.78;100.00;50170.25;4863402;29;20033;-63
2021/09/17 09:17:44;;;;;;;8.10;4.97;;;;;;;-149.78;100.00;50213.28;4863193;29;20112;-63
2021/09/17 09:20:21;;;;;;;7.97;5.07;;;;;;;-149.78;100.00;50150.72;4862190;29;20068;-63
2021/09/17 09:23:02;;;;;;;12.15;4.93;;;;;;;-149.78;100.00;50209.38;4846159;29;20072;-63
2021/09/17 09:25:28;;;;;;;10.20;5.47;;;;;;;-149.78;100.00;50150.72;4862843;29;20033;-63
2021/09/17 09:27:54;;;;;;;10.43;4.88;;;;;;;-149.78;100.00;50213.28;4862977;29;20037;-63
2021/09/17 09:30:30;;;;;;;8.82;5.00;;;;;;;-149.78;100.00;50185.91;4861223;29;20120;-63
2021/09/17 09:32:55;;;;;;;9.20;4.97;;;;;;;-149.78;100.00;50205.47;4862700;29;20545;-63
2021/09/17 09:35:21;;;;;;;6.72;4.43;;;;;;;-149.78;100.00;50162.44;4844794;29;20152;-63
2021/09/17 09:37:47;;;;;;;8.27;4.30;;;;;;;-149.78;100.00;50178.09;4860728;29;20405;-63
2021/09/17 09:40:17;;;;;;;7.60;4.85;;;;;;;-149.78;100.00;50168.31;4861616;29;20046;-63
2021/09/17 09:42:45;;;;;;;9.13;4.93;;;;;;;-149.78;100.00;50170.25;4862125;29;20044;-64
2021/09/17 09:45:24;;;;;;;9.43;4.60;;;;;;;-149.78;100.00;50182.00;4862022;29;20044;-64
2021/09/17 09:47:51;;;;;;;8.60;4.40;;;;;;;-149.78;100.00;50154.63;4863054;29;20061;-63
2021/09/17 09:50:23;;;;;;;7.82;4.35;;;;;;;-149.78;100.00;50189.81;4861920;29;20038;-63
2021/09/17 09:53:01;;;;;;;6.70;3.75;;;;;;;-149.78;100.00;50185.91;4857346;29;20033;-60
2021/09/17 09:55:27;;;;;;;6.82;4.15;;;;;;;-149.78;100.00;50209.38;4851648;29;20508;-61
2021/09/17 09:57:55;;;;;;;6.15;3.70;;;;;;;-149.78;100.00;50158.53;4859160;29;20042;-61
2021/09/17 10:00:21;;;;;;;7.50;3.78;;;;;;;-149.78;100.00;50154.63;4860407;29;20036;-62
2021/09/17 10:02:46;;;;;;;7.03;3.85;;;;;;;-149.78;100.00;50146.81;4852710;29;20046;-61
2021/09/17 10:05:15;;;;;;;6.47;4.80;;;;;;;-149.78;100.00;50158.53;4851580;29;20041;-60
2021/09/17 10:07:41;;;;;;;6.55;3.78;;;;;;;-149.78;100.00;50170.25;4851892;29;20045;-59
2021/09/17 10:10:10;;;;;;;8.20;3.83;;;;;;;-149.78;100.00;50174.19;4842697;29;20048;-59
2021/09/17 10:12:38;;;;;;;7.70;3.90;;;;;;;-149.78;100.00;50135.06;4855903;29;20029;-59
2021/09/17 10:15:04;;;;;;;6.72;3.45;;;;;;;-149.78;100.00;50154.63;4857440;29;20033;-59
2021/09/17 10:17:35;;;;;;;6.45;3.72;;;;;;;-149.78;100.00;50135.06;4855225;29;20385;-59
2021/09/17 10:20:06;;;;;;;7.03;3.95;;;;;;;-149.78;100.00;50123.34;4851462;29;20117;-59
2021/09/17 10:22:38;;;;;;;7.03;3.60;;;;;;;-149.78;100.00;50115.50;4860929;29;20041;-58
2021/09/17 10:25:19;;;;;;;6.65;3.83;;;;;;;-149.78;100.00;50131.16;4854767;29;20108;-58
2021/09/17 10:28:00;;;;;;;6.63;4.07;;;;;;;-149.78;100.00;50119.41;4854408;29;20351;-59
2021/09/17 10:30:30;;;;;;;6.82;3.90;;;;;;;-149.78;100.00;50131.16;4848220;29;20069;-59
2021/09/17 10:32:55;;;;;;;7.00;4.10;;;;;;;-149.78;100.00;50127.25;4861535;29;20032;-59
2021/09/17 10:35:29;;;;;;;6.25;4.10;;;;;;;-149.78;100.00;50138.97;4832738;29;20037;-62
2021/09/17 10:38:05;;;;;;;10.32;4.78;;;;;;;-149.78;100.00;50158.53;4859752;29;20038;-63
2021/09/17 10:40:34;;;;;;;6.15;4.90;;;;;;;-149.78;100.00;50172.22;4852472;29;20037;-62
2021/09/17 10:43:09;;;;;;;9.45;4.80;;;;;;;-149.78;100.00;50158.53;4859360;29;20066;-61
2021/09/17 10:45:49;;;;;;;8.18;4.40;;;;;;;-149.78;100.00;50142.88;4847166;29;20034;-61
2021/09/17 10:48:17;;;;;;;8.20;4.43;;;;;;;-149.78;100.00;50148.75;4859274;29;20398;-60
2021/09/17 10:50:42;;;;;;;9.82;5.55;;;;;;;-149.78;100.00;50154.63;4853749;29;20025;-60
2021/09/17 10:53:10;;;;;;;7.10;4.78;;;;;;;-149.78;100.00;50178.09;4848765;29;20036;-61
2021/09/17 10:55:44;;;;;;;7.82;5.43;;;;;;;-149.78;100.00;50146.81;4849607;29;20044;-61
2021/09/17 10:58:19;;;;;;;11.23;5.13;;;;;;;-149.78;100.00;50187.88;4852189;29;20034;-61